Terminal Aerodrome Forecast
Issued by NWS

Home | Current Version | Previous Version | Text Only | Print | Product List | Glossary On
Versions: 1 2 3 4 5 6 7 8 9 10 11 12 13
362
FTAK31 PAJN 252340
TAFAJN
TAF
PAJN 252340Z 2600/2624 11012KT 6SM -RA FEW006 SCT040 OVC050
      TEMPO 2600/2604 SCT010 BKN035 OVC050
     FM260400 10007KT P6SM -RA BKN025 OVC040
     FM262000 26008KT 6SM -RA SCT015 BKN025 OVC040=

USA.gov is the U.S. government's official web portal to all federal, state and local government web resources and services.